createdAt,value
2022-07-29T00:00:25.382Z,13.92
2022-07-29T00:03:04.150Z,13.91
2022-07-29T00:05:32.569Z,13.92
2022-07-29T00:08:00.840Z,13.93
2022-07-29T00:10:29.428Z,13.91
2022-07-29T00:12:57.790Z,13.86
2022-07-29T00:15:26.506Z,13.79
2022-07-29T00:17:54.915Z,13.72
2022-07-29T00:20:23.537Z,13.68
2022-07-29T00:22:51.842Z,13.65
2022-07-29T00:25:20.418Z,13.65
2022-07-29T00:27:48.842Z,13.66
2022-07-29T00:30:17.389Z,13.66
2022-07-29T00:32:45.742Z,13.63
2022-07-29T00:35:32.821Z,13.57
2022-07-29T00:38:02.218Z,13.55
2022-07-29T00:40:30.880Z,13.56
2022-07-29T00:42:59.574Z,13.54
2022-07-29T00:45:28.272Z,13.60
2022-07-29T00:47:56.904Z,13.61
2022-07-29T00:50:25.494Z,13.59
2022-07-29T00:52:54.492Z,13.55
2022-07-29T00:55:23.586Z,13.54
2022-07-29T00:57:52.348Z,13.53
2022-07-29T01:00:23.739Z,13.54
2022-07-29T01:02:52.329Z,13.55
2022-07-29T01:05:51.028Z,13.56
2022-07-29T01:08:16.525Z,13.55
2022-07-29T01:10:45.667Z,13.52
2022-07-29T01:13:15.977Z,13.48
2022-07-29T01:16:00.455Z,13.29
2022-07-29T01:18:37.415Z,13.32
2022-07-29T01:21:27.496Z,13.33
2022-07-29T01:24:31.693Z,13.30
2022-07-29T01:27:24.007Z,13.22
2022-07-29T01:30:01.052Z,13.13
2022-07-29T01:32:32.782Z,13.07
2022-07-29T01:35:17.713Z,13.03
2022-07-29T01:38:02.864Z,12.99
2022-07-29T01:40:46.216Z,12.99
2022-07-29T01:43:41.692Z,13.01
2022-07-29T01:46:16.117Z,13.03
2022-07-29T01:48:54.585Z,13.04
2022-07-29T01:51:32.796Z,12.99
2022-07-29T01:54:21.691Z,12.99
2022-07-29T01:56:52.542Z,12.94
2022-07-29T01:59:22.873Z,12.92
2022-07-29T02:01:54.851Z,12.91
2022-07-29T02:04:28.948Z,12.91
2022-07-29T02:07:02.878Z,12.89
2022-07-29T02:09:34.578Z,12.89
2022-07-29T02:12:05.308Z,12.89
2022-07-29T02:14:39.417Z,12.90
2022-07-29T02:17:09.087Z,12.82
2022-07-29T02:19:39.861Z,12.89
2022-07-29T02:22:08.711Z,12.90
2022-07-29T02:24:38.796Z,12.80
2022-07-29T02:27:09.592Z,12.79
2022-07-29T02:29:39.061Z,12.84
2022-07-29T02:32:11.610Z,12.83
2022-07-29T02:34:42.713Z,12.69
2022-07-29T02:37:13.038Z,12.80
2022-07-29T02:39:43.773Z,12.62
2022-07-29T02:42:16.111Z,12.81
2022-07-29T02:44:45.140Z,12.76
2022-07-29T02:47:29.231Z,12.74
2022-07-29T02:50:18.726Z,12.71
2022-07-29T02:52:58.716Z,12.69
2022-07-29T02:55:38.864Z,12.69
2022-07-29T02:58:09.200Z,12.71
2022-07-29T03:00:40.303Z,12.73
2022-07-29T03:03:14.637Z,12.74
2022-07-29T03:05:43.478Z,12.76
2022-07-29T03:08:13.951Z,12.77
2022-07-29T03:10:45.277Z,12.78
2022-07-29T03:13:15.197Z,12.77
2022-07-29T03:15:46.413Z,12.78
2022-07-29T03:18:15.913Z,12.78
2022-07-29T03:20:44.722Z,12.79
2022-07-29T03:23:12.926Z,12.79
2022-07-29T03:25:41.143Z,12.81
2022-07-29T03:28:09.839Z,12.84
2022-07-29T03:30:38.265Z,12.86
2022-07-29T03:33:13.254Z,12.89
2022-07-29T03:35:42.100Z,12.90
2022-07-29T03:38:10.296Z,12.91
2022-07-29T03:40:52.872Z,12.90
2022-07-29T03:43:24.003Z,12.85
2022-07-29T03:45:55.156Z,12.82
2022-07-29T03:48:26.500Z,12.83
2022-07-29T03:50:54.870Z,12.85
2022-07-29T03:53:23.857Z,12.85
2022-07-29T03:56:00.348Z,12.89
2022-07-29T03:58:31.633Z,12.92
2022-07-29T04:01:00.743Z,12.91
2022-07-29T04:03:29.059Z,13.03
2022-07-29T04:06:02.071Z,13.05
2022-07-29T04:08:30.515Z,13.05
2022-07-29T04:10:58.761Z,13.08
2022-07-29T04:13:26.914Z,13.11
2022-07-29T04:15:55.244Z,13.16
2022-07-29T04:18:23.566Z,13.23
2022-07-29T04:20:51.947Z,13.16
2022-07-29T04:23:20.107Z,13.37
2022-07-29T04:25:48.431Z,13.45
2022-07-29T04:28:17.071Z,13.55
2022-07-29T04:30:45.470Z,13.62
2022-07-29T04:33:13.944Z,13.66
2022-07-29T04:35:50.539Z,13.71
2022-07-29T04:38:20.887Z,13.78
2022-07-29T04:40:49.792Z,13.87
2022-07-29T04:43:22.679Z,13.98
2022-07-29T04:45:52.581Z,14.10
2022-07-29T04:48:25.357Z,14.22
2022-07-29T04:50:57.706Z,14.35
2022-07-29T04:53:26.803Z,14.45
2022-07-29T04:55:55.202Z,14.57
2022-07-29T04:58:24.704Z,14.68
2022-07-29T05:00:52.899Z,14.78
2022-07-29T05:03:21.310Z,14.88
2022-07-29T05:05:49.538Z,14.99
2022-07-29T05:08:18.127Z,15.08
2022-07-29T05:10:46.724Z,15.19
2022-07-29T05:13:14.921Z,15.31
2022-07-29T05:15:43.199Z,15.43
2022-07-29T05:18:11.467Z,15.53
2022-07-29T05:20:40.404Z,15.64
2022-07-29T05:23:08.913Z,15.73
2022-07-29T05:25:44.195Z,15.82
2022-07-29T05:28:13.165Z,15.92
2022-07-29T05:30:41.483Z,16.01
2022-07-29T05:33:36.023Z,16.10
2022-07-29T05:36:00.611Z,16.21
2022-07-29T05:38:30.519Z,16.29
2022-07-29T05:41:00.327Z,16.36
2022-07-29T05:43:29.366Z,16.44
2022-07-29T05:45:58.259Z,16.52
2022-07-29T05:48:26.675Z,16.63
2022-07-29T05:50:55.838Z,16.73
2022-07-29T05:53:24.481Z,16.82
2022-07-29T05:55:53.290Z,16.92
2022-07-29T05:58:21.694Z,17.01
2022-07-29T06:00:50.071Z,17.12
2022-07-29T06:03:18.307Z,17.22
2022-07-29T06:05:46.522Z,17.34
2022-07-29T06:08:15.050Z,17.45
2022-07-29T06:10:43.329Z,17.55
2022-07-29T06:13:11.573Z,17.64
2022-07-29T06:15:40.498Z,17.72
2022-07-29T06:18:11.125Z,17.80
2022-07-29T06:20:39.568Z,17.89
2022-07-29T06:23:07.829Z,17.90
2022-07-29T06:25:37.911Z,18.07
2022-07-29T06:28:06.164Z,18.14
2022-07-29T06:30:34.579Z,18.23
2022-07-29T06:33:03.955Z,18.31
2022-07-29T06:35:41.801Z,18.37
2022-07-29T06:38:30.043Z,18.46
2022-07-29T06:41:03.811Z,18.55
2022-07-29T06:43:51.029Z,18.61
2022-07-29T06:46:24.333Z,18.67
2022-07-29T06:48:53.521Z,18.74
2022-07-29T06:51:23.949Z,18.85
2022-07-29T06:53:59.850Z,18.89
2022-07-29T06:56:38.648Z,19.04
2022-07-29T06:59:10.083Z,19.13
2022-07-29T07:01:40.562Z,19.21
2022-07-29T07:04:10.001Z,19.24
2022-07-29T07:06:39.061Z,19.28
2022-07-29T07:09:07.816Z,19.33
2022-07-29T07:11:36.182Z,19.44
2022-07-29T07:14:04.717Z,19.54
2022-07-29T07:16:33.675Z,19.60
2022-07-29T07:19:02.606Z,19.66
2022-07-29T07:21:31.379Z,19.73
2022-07-29T07:24:01.009Z,19.74
2022-07-29T07:26:29.532Z,19.76
2022-07-29T07:28:58.261Z,19.80
2022-07-29T07:31:26.596Z,19.90
2022-07-29T07:33:55.191Z,19.98
2022-07-29T07:36:23.975Z,20.05
2022-07-29T07:38:52.303Z,20.10
2022-07-29T07:41:20.865Z,20.19
2022-07-29T07:43:49.559Z,20.01
2022-07-29T07:46:18.163Z,20.31
2022-07-29T07:48:46.560Z,20.35
2022-07-29T07:51:14.898Z,20.34
2022-07-29T07:53:43.199Z,20.32
2022-07-29T07:56:12.815Z,20.29
2022-07-29T07:58:41.359Z,20.23
2022-07-29T08:01:10.558Z,20.21
2022-07-29T08:03:40.086Z,20.20
2022-07-29T08:06:08.950Z,20.27
2022-07-29T08:08:39.723Z,20.36
2022-07-29T08:11:09.784Z,20.46
2022-07-29T08:13:39.209Z,20.55
2022-07-29T08:16:16.169Z,20.68
2022-07-29T08:18:46.592Z,20.78
2022-07-29T08:21:17.053Z,20.87
2022-07-29T08:23:52.725Z,20.87
2022-07-29T08:26:26.367Z,20.80
2022-07-29T08:28:55.077Z,20.83
2022-07-29T08:31:23.550Z,20.96
2022-07-29T08:33:51.958Z,21.10
2022-07-29T08:36:22.169Z,21.21
2022-07-29T08:38:50.858Z,21.32
2022-07-29T08:41:23.137Z,21.34
2022-07-29T08:43:53.064Z,21.50
2022-07-29T08:46:22.237Z,21.58
2022-07-29T08:48:50.932Z,21.68
2022-07-29T08:51:21.347Z,21.72
2022-07-29T08:53:51.294Z,21.92
2022-07-29T08:56:20.824Z,21.98
2022-07-29T08:58:52.043Z,22.05
2022-07-29T09:01:35.960Z,22.22
2022-07-29T09:04:12.867Z,22.50
2022-07-29T09:06:46.105Z,22.46
2022-07-29T09:09:16.036Z,22.64
2022-07-29T09:11:44.888Z,22.81
2022-07-29T09:14:14.802Z,23.06
2022-07-29T09:17:00.919Z,23.26
2022-07-29T09:19:37.082Z,23.41
2022-07-29T09:22:07.934Z,23.43
2022-07-29T09:24:40.894Z,23.45
2022-07-29T09:27:23.269Z,23.48
2022-07-29T09:30:01.885Z,23.56
2022-07-29T09:32:30.752Z,23.77
2022-07-29T09:35:22.181Z,23.76
2022-07-29T09:37:51.634Z,24.05
2022-07-29T09:40:26.072Z,24.29
2022-07-29T09:42:58.521Z,24.82
2022-07-29T09:45:33.726Z,25.35
2022-07-29T09:48:24.727Z,25.67
2022-07-29T09:50:53.689Z,25.65
2022-07-29T09:53:39.154Z,25.89
2022-07-29T09:56:07.520Z,26.31
2022-07-29T09:58:36.016Z,26.52
2022-07-29T10:01:05.166Z,26.79
2022-07-29T10:03:33.982Z,27.00
2022-07-29T10:06:12.369Z,27.34
2022-07-29T10:08:42.830Z,27.44
2022-07-29T10:11:16.288Z,27.79
2022-07-29T10:13:47.875Z,28.25
2022-07-29T10:16:17.731Z,28.53
2022-07-29T10:18:47.964Z,28.61
2022-07-29T10:21:35.586Z,28.97
2022-07-29T10:24:06.106Z,29.06
2022-07-29T10:26:34.775Z,28.70
2022-07-29T10:29:03.102Z,28.48
2022-07-29T10:31:45.286Z,28.31
2022-07-29T10:34:34.932Z,28.27
2022-07-29T10:37:45.699Z,27.72
2022-07-29T10:40:48.176Z,28.19
2022-07-29T10:43:27.321Z,27.99
2022-07-29T10:46:00.430Z,27.86
2022-07-29T10:48:29.124Z,28.21
2022-07-29T10:51:05.310Z,28.46
2022-07-29T10:53:50.447Z,28.78
2022-07-29T10:56:30.168Z,28.70
2022-07-29T10:59:25.187Z,28.27
2022-07-29T11:04:46.937Z,27.34
2022-07-29T11:07:17.530Z,27.73
2022-07-29T11:10:14.376Z,27.83
2022-07-29T11:12:42.467Z,27.46
2022-07-29T11:15:19.871Z,27.56
2022-07-29T11:18:01.415Z,27.73
2022-07-29T11:20:37.906Z,27.93
2022-07-29T11:23:28.079Z,27.81
2022-07-29T11:26:34.891Z,27.21
2022-07-29T11:29:23.323Z,26.73
2022-07-29T11:31:56.853Z,26.56
2022-07-29T11:34:28.214Z,26.95
2022-07-29T11:37:16.142Z,27.51
2022-07-29T11:40:01.785Z,28.11
2022-07-29T11:42:35.246Z,28.47
2022-07-29T11:45:44.974Z,28.87
2022-07-29T11:48:29.147Z,29.40
2022-07-29T11:50:58.515Z,29.95
2022-07-29T11:53:29.078Z,30.22
2022-07-29T11:56:19.363Z,30.47
2022-07-29T11:58:47.895Z,30.69
2022-07-29T12:01:18.612Z,30.66
2022-07-29T12:03:46.959Z,30.31
2022-07-29T12:06:17.622Z,30.33
2022-07-29T12:08:47.365Z,30.51
2022-07-29T12:11:17.884Z,30.57
2022-07-29T12:13:50.930Z,30.65
2022-07-29T12:16:25.809Z,30.32
2022-07-29T12:19:02.883Z,30.06
2022-07-29T12:21:50.949Z,29.47
2022-07-29T12:24:26.726Z,29.37
2022-07-29T12:27:00.296Z,29.68
2022-07-29T12:29:34.893Z,29.51
2022-07-29T12:32:14.990Z,29.06
2022-07-29T12:34:48.588Z,28.73
2022-07-29T12:37:17.771Z,28.60
2022-07-29T12:39:46.475Z,28.41
2022-07-29T12:42:18.523Z,28.18
2022-07-29T12:44:52.346Z,28.23
2022-07-29T12:47:21.702Z,28.50
2022-07-29T12:49:50.865Z,28.59
2022-07-29T12:52:34.833Z,28.40
2022-07-29T12:55:04.183Z,27.97
2022-07-29T12:57:33.351Z,27.79
2022-07-29T13:00:06.326Z,27.63
2022-07-29T13:02:35.715Z,27.54
2022-07-29T13:05:07.594Z,27.73
2022-07-29T13:07:54.344Z,28.03
2022-07-29T13:10:24.985Z,27.83
2022-07-29T13:13:09.215Z,27.53
2022-07-29T13:15:42.374Z,27.33
2022-07-29T13:18:34.955Z,27.35
2022-07-29T13:21:17.726Z,27.40
2022-07-29T13:23:47.494Z,27.59
2022-07-29T13:26:19.318Z,27.42
2022-07-29T13:28:47.781Z,27.26
2022-07-29T13:31:16.196Z,27.17
2022-07-29T13:33:44.857Z,26.99
2022-07-29T13:36:13.128Z,26.85
2022-07-29T13:38:41.661Z,26.59
2022-07-29T13:41:10.401Z,26.18
2022-07-29T13:43:39.015Z,25.97
2022-07-29T13:46:07.363Z,25.81
2022-07-29T13:48:36.025Z,25.66
2022-07-29T13:51:04.309Z,25.79
2022-07-29T13:53:33.840Z,26.04
2022-07-29T13:56:02.706Z,26.31
2022-07-29T13:58:31.305Z,26.47
2022-07-29T14:01:00.117Z,26.68
2022-07-29T14:03:29.173Z,26.95
2022-07-29T14:05:57.900Z,27.15
2022-07-29T14:08:26.417Z,27.17
2022-07-29T14:10:54.681Z,27.09
2022-07-29T14:13:25.164Z,27.26
2022-07-29T14:15:54.313Z,27.44
2022-07-29T14:18:22.667Z,27.45
2022-07-29T14:20:52.225Z,27.31
2022-07-29T14:23:20.580Z,27.26
2022-07-29T14:25:49.408Z,27.44
2022-07-29T14:28:17.990Z,27.60
2022-07-29T14:30:47.217Z,27.38
2022-07-29T14:33:15.669Z,27.38
2022-07-29T14:35:44.810Z,27.61
2022-07-29T14:38:13.176Z,27.65
2022-07-29T14:40:41.722Z,27.53
2022-07-29T14:43:10.076Z,27.55
2022-07-29T14:45:38.696Z,27.63
2022-07-29T14:48:07.312Z,27.75
2022-07-29T14:50:36.051Z,27.90
2022-07-29T14:53:04.741Z,28.21
2022-07-29T14:55:33.505Z,28.43
2022-07-29T14:58:09.735Z,28.27
2022-07-29T15:00:40.542Z,28.39
2022-07-29T15:03:11.552Z,28.45
2022-07-29T15:05:40.189Z,28.45
2022-07-29T15:08:09.339Z,28.41
2022-07-29T15:10:37.703Z,28.24
2022-07-29T15:13:06.202Z,27.97
2022-07-29T15:15:34.967Z,27.81
2022-07-29T15:18:03.499Z,27.71
2022-07-29T15:20:32.123Z,27.42
2022-07-29T15:23:00.364Z,26.93
2022-07-29T15:25:28.667Z,26.48
2022-07-29T15:28:01.082Z,26.25
2022-07-29T15:30:33.422Z,25.98
2022-07-29T15:33:04.512Z,25.78
2022-07-29T15:35:33.507Z,25.76
2022-07-29T15:38:09.528Z,25.85
2022-07-29T15:40:40.076Z,25.95
2022-07-29T15:43:08.458Z,25.94
2022-07-29T15:45:42.064Z,25.96
2022-07-29T15:48:14.507Z,26.19
2022-07-29T15:50:46.931Z,26.47
2022-07-29T15:53:15.498Z,26.49
2022-07-29T15:55:44.560Z,26.53
2022-07-29T15:58:12.992Z,26.44
2022-07-29T16:00:41.422Z,26.05
2022-07-29T16:03:09.800Z,25.83
2022-07-29T16:05:38.104Z,25.80
2022-07-29T16:08:07.134Z,25.39
2022-07-29T16:10:35.500Z,25.05
2022-07-29T16:13:03.951Z,24.73
2022-07-29T16:15:32.459Z,24.25
2022-07-29T16:18:01.092Z,23.93
2022-07-29T16:20:29.473Z,23.69
2022-07-29T16:22:57.760Z,23.47
2022-07-29T16:25:43.922Z,23.54
2022-07-29T16:28:14.382Z,23.53
2022-07-29T16:30:42.681Z,23.38
2022-07-29T16:33:11.033Z,23.20
2022-07-29T16:35:40.693Z,23.07
2022-07-29T16:38:09.129Z,22.98
2022-07-29T16:40:37.496Z,22.89
2022-07-29T16:43:06.585Z,22.41
2022-07-29T16:45:42.559Z,22.60
2022-07-29T16:48:18.073Z,22.34
2022-07-29T16:50:47.125Z,22.30
2022-07-29T16:53:15.481Z,22.11
2022-07-29T16:55:44.108Z,21.96
2022-07-29T16:58:12.322Z,21.86
2022-07-29T17:00:40.917Z,21.76
2022-07-29T17:03:09.265Z,21.66
2022-07-29T17:05:50.683Z,21.52
2022-07-29T17:08:23.269Z,21.41
2022-07-29T17:10:51.658Z,21.31
2022-07-29T17:13:20.428Z,21.20
2022-07-29T17:15:48.868Z,21.08
2022-07-29T17:18:17.780Z,20.98
2022-07-29T17:20:46.821Z,20.79
2022-07-29T17:23:15.127Z,20.81
2022-07-29T17:25:43.422Z,20.71
2022-07-29T17:28:11.759Z,20.60
2022-07-29T17:30:40.039Z,20.50
2022-07-29T17:33:08.381Z,20.43
2022-07-29T17:35:55.129Z,20.36
2022-07-29T17:38:23.479Z,20.29
2022-07-29T17:40:51.858Z,20.21
2022-07-29T17:43:20.193Z,20.09
2022-07-29T17:45:49.426Z,20.02
2022-07-29T17:48:19.735Z,19.93
2022-07-29T17:50:50.720Z,19.85
2022-07-29T17:53:19.097Z,19.78
2022-07-29T17:55:52.088Z,19.66
2022-07-29T17:58:20.459Z,19.59
2022-07-29T18:00:49.038Z,19.62
2022-07-29T18:03:17.907Z,19.36
2022-07-29T18:05:46.670Z,19.49
2022-07-29T18:08:17.071Z,19.43
2022-07-29T18:10:46.293Z,19.38
2022-07-29T18:13:14.657Z,19.34
2022-07-29T18:15:45.881Z,19.31
2022-07-29T18:18:15.320Z,19.22
2022-07-29T18:20:43.718Z,19.24
2022-07-29T18:23:12.881Z,19.17
2022-07-29T18:25:41.341Z,19.06
2022-07-29T18:28:09.690Z,19.08
2022-07-29T18:30:38.215Z,18.94
2022-07-29T18:33:24.259Z,18.94
2022-07-29T18:36:10.877Z,18.86
2022-07-29T18:38:41.422Z,18.79
2022-07-29T18:41:10.098Z,18.75
2022-07-29T18:43:38.433Z,18.69
2022-07-29T18:46:06.926Z,18.64
2022-07-29T18:48:35.454Z,18.60
2022-07-29T18:51:09.493Z,18.53
2022-07-29T18:53:38.141Z,18.48
2022-07-29T18:56:06.502Z,18.44
2022-07-29T18:58:37.100Z,18.31
2022-07-29T19:01:06.460Z,18.33
2022-07-29T19:03:35.085Z,18.29
2022-07-29T19:06:03.572Z,18.26
2022-07-29T19:08:32.987Z,18.22
2022-07-29T19:11:01.248Z,18.14
2022-07-29T19:13:29.540Z,18.13
2022-07-29T19:15:58.026Z,18.09
2022-07-29T19:18:26.458Z,18.05
2022-07-29T19:20:54.811Z,17.97
2022-07-29T19:23:23.718Z,17.90
2022-07-29T19:25:53.776Z,17.87
2022-07-29T19:28:22.788Z,17.83
2022-07-29T19:30:51.341Z,17.80
2022-07-29T19:33:19.798Z,17.77
2022-07-29T19:35:52.831Z,17.75
2022-07-29T19:38:23.542Z,17.74
2022-07-29T19:40:52.324Z,17.73
2022-07-29T19:43:51.799Z,17.53
2022-07-29T19:46:09.866Z,17.69
2022-07-29T19:48:39.065Z,17.68
2022-07-29T19:51:07.384Z,17.63
2022-07-29T19:53:35.664Z,17.56
2022-07-29T19:56:04.237Z,17.54
2022-07-29T19:58:32.618Z,17.49
2022-07-29T20:01:00.937Z,17.46
2022-07-29T20:03:29.947Z,17.44
2022-07-29T20:05:58.427Z,17.42
2022-07-29T20:08:26.790Z,17.39
2022-07-29T20:10:56.155Z,17.37
2022-07-29T20:13:24.757Z,17.25
2022-07-29T20:15:53.182Z,17.29
2022-07-29T20:18:21.605Z,17.26
2022-07-29T20:20:50.238Z,17.24
2022-07-29T20:23:19.514Z,17.22
2022-07-29T20:25:48.571Z,17.13
2022-07-29T20:28:17.005Z,17.19
2022-07-29T20:30:45.581Z,17.19
2022-07-29T20:33:16.094Z,17.18
2022-07-29T20:35:44.529Z,17.16
2022-07-29T20:38:18.078Z,17.14
2022-07-29T20:40:46.748Z,17.11
2022-07-29T20:43:15.078Z,17.09
2022-07-29T20:45:43.520Z,17.09
2022-07-29T20:48:13.676Z,16.77
2022-07-29T20:50:42.967Z,17.07
2022-07-29T20:53:11.699Z,17.06
2022-07-29T20:55:40.066Z,17.04
2022-07-29T20:58:08.922Z,17.03
2022-07-29T21:00:37.586Z,16.99
2022-07-29T21:03:06.450Z,16.97
2022-07-29T21:05:37.142Z,16.95
2022-07-29T21:08:05.767Z,16.95
2022-07-29T21:10:34.055Z,16.93
2022-07-29T21:13:02.424Z,16.91
2022-07-29T21:15:30.927Z,16.89
2022-07-29T21:18:02.819Z,16.86
2022-07-29T21:20:31.724Z,16.85
2022-07-29T21:23:00.474Z,16.81
2022-07-29T21:25:29.804Z,16.75
2022-07-29T21:28:19.049Z,16.82
2022-07-29T21:30:47.435Z,16.81
2022-07-29T21:33:15.784Z,16.79
2022-07-29T21:36:06.171Z,16.77
2022-07-29T21:38:33.255Z,16.76
2022-07-29T21:41:02.728Z,16.76
2022-07-29T21:43:31.606Z,16.73
2022-07-29T21:46:00.704Z,16.71
2022-07-29T21:48:29.464Z,16.63
2022-07-29T21:50:57.892Z,16.69
2022-07-29T21:53:28.295Z,16.69
2022-07-29T21:55:57.016Z,16.61
2022-07-29T21:58:25.529Z,16.67
2022-07-29T22:00:54.167Z,16.64
2022-07-29T22:03:22.537Z,16.63
2022-07-29T22:05:50.851Z,16.63
2022-07-29T22:08:21.506Z,16.58
2022-07-29T22:10:50.188Z,16.59
2022-07-29T22:13:18.571Z,16.56
2022-07-29T22:15:47.419Z,16.52
2022-07-29T22:18:20.533Z,16.44
2022-07-29T22:20:50.819Z,16.46
2022-07-29T22:23:19.251Z,16.42
2022-07-29T22:25:47.721Z,16.42
2022-07-29T22:28:15.908Z,16.42
2022-07-29T22:30:44.305Z,16.41
2022-07-29T22:33:17.881Z,16.42
2022-07-29T22:35:48.636Z,16.40
2022-07-29T22:38:18.689Z,16.40
2022-07-29T22:40:48.580Z,16.40
2022-07-29T22:43:17.076Z,16.32
2022-07-29T22:45:45.596Z,16.39
2022-07-29T22:48:14.015Z,16.37
2022-07-29T22:50:42.411Z,16.37
2022-07-29T22:53:10.582Z,16.35
2022-07-29T22:55:38.958Z,16.34
2022-07-29T22:58:07.347Z,16.33
2022-07-29T23:00:35.761Z,16.33
2022-07-29T23:03:04.542Z,16.32
2022-07-29T23:05:33.614Z,16.31
2022-07-29T23:08:01.901Z,16.30
2022-07-29T23:10:30.214Z,16.29
2022-07-29T23:12:59.135Z,16.27
2022-07-29T23:15:27.830Z,16.23
2022-07-29T23:17:56.211Z,16.21
2022-07-29T23:20:24.635Z,16.20
2022-07-29T23:22:53.062Z,16.20
2022-07-29T23:25:21.434Z,16.19
2022-07-29T23:27:49.690Z,16.19
2022-07-29T23:30:17.914Z,16.18
2022-07-29T23:32:46.447Z,16.18
2022-07-29T23:35:14.878Z,16.17
2022-07-29T23:37:43.292Z,16.17
2022-07-29T23:40:14.428Z,16.16
2022-07-29T23:42:44.039Z,16.16
2022-07-29T23:45:13.741Z,16.16
2022-07-29T23:47:42.812Z,16.16
2022-07-29T23:50:12.680Z,16.16
2022-07-29T23:52:41.853Z,16.15
2022-07-29T23:55:36.664Z,16.14
2022-07-29T23:58:00.213Z,16.14
